createdAt,value
2018-07-04T00:02:39.600Z,14.98
2018-07-04T00:05:25.777Z,14.81
2018-07-04T00:08:12.012Z,14.70
2018-07-04T00:10:58.529Z,14.59
2018-07-04T00:13:44.807Z,14.54
2018-07-04T00:16:31.053Z,14.47
2018-07-04T00:19:17.329Z,15.09
2018-07-04T00:22:03.708Z,15.10
2018-07-04T00:24:50.336Z,14.85
2018-07-04T00:27:36.627Z,14.72
2018-07-04T00:30:22.649Z,14.77
2018-07-04T00:33:08.703Z,14.45
2018-07-04T00:35:54.894Z,14.51
2018-07-04T00:38:41.202Z,14.51
2018-07-04T00:41:27.438Z,14.62
2018-07-04T00:44:13.843Z,14.72
2018-07-04T00:47:00.031Z,14.71
2018-07-04T00:49:46.275Z,14.65
2018-07-04T00:52:32.341Z,14.80
2018-07-04T00:55:18.735Z,14.53
2018-07-04T00:58:04.963Z,14.40
2018-07-04T01:00:51.023Z,14.29
2018-07-04T01:03:37.175Z,14.14
2018-07-04T01:06:23.278Z,14.08
2018-07-04T01:09:09.546Z,13.97
2018-07-04T01:11:55.762Z,13.89
2018-07-04T01:14:41.950Z,13.81
2018-07-04T01:17:28.062Z,13.85
2018-07-04T01:20:14.294Z,13.80
2018-07-04T01:23:00.447Z,13.74
2018-07-04T01:25:46.612Z,13.75
2018-07-04T01:28:38.082Z,13.65
2018-07-04T01:31:24.227Z,13.57
2018-07-04T01:34:11.070Z,13.50
2018-07-04T01:36:57.519Z,13.46
2018-07-04T01:39:44.001Z,13.45
2018-07-04T01:42:30.383Z,13.41
2018-07-04T01:45:16.754Z,13.37
2018-07-04T01:48:03.296Z,13.62
2018-07-04T01:50:43.897Z,13.77
2018-07-04T01:53:30.087Z,13.62
2018-07-04T01:56:16.059Z,13.57
2018-07-04T01:59:02.238Z,13.50
2018-07-04T02:01:48.368Z,13.43
2018-07-04T02:04:34.646Z,13.38
2018-07-04T02:07:20.751Z,13.34
2018-07-04T02:10:07.013Z,13.47
2018-07-04T02:12:53.044Z,13.37
2018-07-04T02:15:39.050Z,13.56
2018-07-04T02:18:25.299Z,13.38
2018-07-04T02:21:11.623Z,13.25
2018-07-04T02:23:57.950Z,13.22
2018-07-04T02:26:44.526Z,13.23
2018-07-04T02:29:30.925Z,13.27
2018-07-04T02:32:17.427Z,13.52
2018-07-04T02:35:03.895Z,13.74
2018-07-04T02:37:50.176Z,13.48
2018-07-04T02:40:36.343Z,13.28
2018-07-04T02:43:22.567Z,13.15
2018-07-04T02:46:09.829Z,13.07
2018-07-04T02:48:55.941Z,12.98
2018-07-04T02:51:42.044Z,12.95
2018-07-04T02:54:28.117Z,13.01
2018-07-04T02:57:14.457Z,13.01
2018-07-04T03:00:00.564Z,13.04
2018-07-04T03:02:46.707Z,13.38
2018-07-04T03:05:32.970Z,13.32
2018-07-04T03:08:19.108Z,13.09
2018-07-04T03:11:05.237Z,12.98
2018-07-04T03:13:51.588Z,13.02
2018-07-04T03:16:37.714Z,12.85
2018-07-04T03:19:24.037Z,12.72
2018-07-04T03:22:10.253Z,12.68
2018-07-04T03:24:56.534Z,12.68
2018-07-04T03:27:42.758Z,12.70
2018-07-04T03:30:28.959Z,12.70
2018-07-04T03:33:15.122Z,12.73
2018-07-04T03:36:01.295Z,12.74
2018-07-04T03:38:47.398Z,12.79
2018-07-04T03:41:33.363Z,12.81
2018-07-04T03:44:19.518Z,12.85
2018-07-04T03:47:05.878Z,13.35
2018-07-04T03:49:53.303Z,13.06
2018-07-04T03:52:39.545Z,12.97
2018-07-04T03:55:25.951Z,13.04
2018-07-04T03:58:12.416Z,13.17
2018-07-04T04:00:58.603Z,13.22
2018-07-04T04:03:44.865Z,13.28
2018-07-04T04:06:31.119Z,13.60
2018-07-04T04:09:17.224Z,14.00
2018-07-04T04:12:03.570Z,14.21
2018-07-04T04:14:49.839Z,14.18
2018-07-04T04:17:36.402Z,14.21
2018-07-04T04:20:22.897Z,14.17
2018-07-04T04:23:09.375Z,14.14
2018-07-04T04:25:55.832Z,14.32
2018-07-04T04:28:42.416Z,14.47
2018-07-04T04:31:28.677Z,14.55
2018-07-04T04:34:14.942Z,14.69
2018-07-04T04:37:01.407Z,15.03
2018-07-04T04:39:47.885Z,15.31
2018-07-04T04:42:34.254Z,15.70
2018-07-04T04:45:20.754Z,16.14
2018-07-04T04:48:07.060Z,16.34
2018-07-04T04:50:53.391Z,16.56
2018-07-04T04:53:39.897Z,16.81
2018-07-04T04:56:25.939Z,17.00
2018-07-04T04:59:12.211Z,16.90
2018-07-04T05:01:58.430Z,16.89
2018-07-04T05:04:44.472Z,17.19
2018-07-04T05:07:30.764Z,17.73
2018-07-04T05:10:16.767Z,17.80
2018-07-04T05:13:02.921Z,17.64
2018-07-04T05:15:49.128Z,17.58
2018-07-04T05:18:35.441Z,17.44
2018-07-04T05:21:21.542Z,17.39
2018-07-04T05:24:07.598Z,17.81
2018-07-04T05:26:53.727Z,17.99
2018-07-04T05:29:39.787Z,18.20
2018-07-04T05:32:25.947Z,18.63
2018-07-04T05:35:12.106Z,18.71
2018-07-04T05:37:58.187Z,19.86
2018-07-04T05:40:45.379Z,23.47
2018-07-04T05:43:31.435Z,25.04
2018-07-04T05:46:17.569Z,27.12
2018-07-04T05:49:03.671Z,28.72
2018-07-04T05:51:49.780Z,28.54
2018-07-04T05:54:36.020Z,30.41
2018-07-04T05:57:22.286Z,29.87
2018-07-04T06:00:08.408Z,27.99
2018-07-04T06:02:54.636Z,25.29
2018-07-04T06:05:40.770Z,25.08
2018-07-04T06:08:27.022Z,24.05
2018-07-04T06:11:13.272Z,26.49
2018-07-04T06:13:59.300Z,25.21
2018-07-04T06:16:45.651Z,23.34
2018-07-04T06:19:31.850Z,23.04
2018-07-04T06:22:17.952Z,22.76
2018-07-04T06:25:04.005Z,21.46
2018-07-04T06:27:50.167Z,21.99
2018-07-04T06:30:36.361Z,21.62
2018-07-04T06:33:22.582Z,21.53
2018-07-04T06:36:08.745Z,21.34
2018-07-04T06:38:36.449Z,21.53
2018-07-04T06:41:04.177Z,22.25
2018-07-04T06:43:31.905Z,22.18
2018-07-04T06:45:59.624Z,21.80
2018-07-04T06:48:27.334Z,22.17
2018-07-04T06:50:55.075Z,22.73
2018-07-04T06:53:22.823Z,22.66
2018-07-04T06:55:50.543Z,22.74
2018-07-04T06:58:18.502Z,22.98
2018-07-04T07:00:46.219Z,22.91
2018-07-04T07:03:32.435Z,22.91
2018-07-04T07:06:18.671Z,23.18
2018-07-04T07:09:05.681Z,23.70
2018-07-04T07:11:52.109Z,23.76
2018-07-04T07:14:38.573Z,23.69
2018-07-04T07:17:24.839Z,24.39
2018-07-04T07:20:11.212Z,25.21
2018-07-04T07:22:57.514Z,24.93
2018-07-04T07:25:43.995Z,24.57
2018-07-04T07:28:30.624Z,24.85
2018-07-04T07:31:16.974Z,27.14
2018-07-04T07:34:03.601Z,30.29
2018-07-04T07:36:50.047Z,31.55
2018-07-04T07:39:36.503Z,30.19
2018-07-04T07:42:17.078Z,29.38
2018-07-04T07:45:03.477Z,28.91
2018-07-04T07:47:50.214Z,30.66
2018-07-04T07:50:36.616Z,29.36
2018-07-04T07:53:22.610Z,30.33
2018-07-04T07:56:08.870Z,28.79
2018-07-04T07:58:54.988Z,31.11
2018-07-04T08:01:41.210Z,30.99
2018-07-04T08:04:27.306Z,31.71
2018-07-04T08:07:13.453Z,31.23
2018-07-04T08:09:59.456Z,30.84
2018-07-04T08:12:45.684Z,31.29
2018-07-04T08:15:32.595Z,30.98
2018-07-04T08:18:18.717Z,30.90
2018-07-04T08:21:04.830Z,32.46
2018-07-04T08:23:50.962Z,33.36
2018-07-04T08:26:37.182Z,30.13
2018-07-04T08:29:23.386Z,30.74
2018-07-04T08:32:09.763Z,29.96
2018-07-04T08:34:56.022Z,29.97
2018-07-04T08:37:42.451Z,30.81
2018-07-04T08:40:29.005Z,32.93
2018-07-04T08:43:15.003Z,32.67
2018-07-04T08:46:01.236Z,31.66
2018-07-04T08:48:47.380Z,29.77
2018-07-04T08:51:33.390Z,29.43
2018-07-04T08:54:19.614Z,27.82
2018-07-04T08:57:05.745Z,28.66
2018-07-04T08:59:51.996Z,29.33
2018-07-04T09:02:38.050Z,32.43
2018-07-04T09:05:24.315Z,31.85
2018-07-04T09:08:10.431Z,32.69
2018-07-04T09:10:56.660Z,33.79
2018-07-04T09:13:42.716Z,33.86
2018-07-04T09:16:28.816Z,33.31
2018-07-04T09:19:14.855Z,31.69
2018-07-04T09:22:00.985Z,31.64
2018-07-04T09:24:47.235Z,32.15
2018-07-04T09:27:33.267Z,32.01
2018-07-04T09:30:19.559Z,32.40
2018-07-04T09:33:05.657Z,30.99
2018-07-04T09:35:51.686Z,30.18
2018-07-04T09:38:37.917Z,28.75
2018-07-04T09:41:23.934Z,27.82
2018-07-04T09:44:10.164Z,27.59
2018-07-04T09:46:56.292Z,27.38
2018-07-04T09:49:42.607Z,26.95
2018-07-04T09:52:29.164Z,27.99
2018-07-04T09:55:15.754Z,28.48
2018-07-04T09:58:02.538Z,28.54
2018-07-04T10:00:53.863Z,28.91
2018-07-04T10:03:40.014Z,31.33
2018-07-04T10:06:26.011Z,31.93
2018-07-04T10:09:12.158Z,31.41
2018-07-04T10:11:58.560Z,30.45
2018-07-04T10:14:44.954Z,31.21
2018-07-04T10:17:31.177Z,31.13
2018-07-04T10:20:17.473Z,31.20
2018-07-04T10:23:03.769Z,30.63
2018-07-04T10:25:49.989Z,29.22
2018-07-04T10:28:36.239Z,29.19
2018-07-04T10:31:22.358Z,28.84
2018-07-04T10:34:08.627Z,28.85
2018-07-04T10:36:54.889Z,28.23
2018-07-04T10:39:41.110Z,27.92
2018-07-04T10:42:27.261Z,28.43
2018-07-04T10:45:13.397Z,27.96
2018-07-04T10:47:59.623Z,27.20
2018-07-04T10:50:46.159Z,26.88
2018-07-04T10:53:32.627Z,26.78
2018-07-04T10:56:19.123Z,26.77
2018-07-04T10:59:06.788Z,27.67
2018-07-04T11:01:53.164Z,28.79
2018-07-04T11:04:39.353Z,29.96
2018-07-04T11:07:25.519Z,31.33
2018-07-04T11:10:11.706Z,31.57
2018-07-04T11:12:57.839Z,33.30
2018-07-04T11:15:43.859Z,32.59
2018-07-04T11:18:29.934Z,33.24
2018-07-04T11:21:16.303Z,35.94
2018-07-04T11:24:02.780Z,33.70
2018-07-04T11:26:48.996Z,34.09
2018-07-04T11:29:35.195Z,35.13
2018-07-04T11:32:21.282Z,35.12
2018-07-04T11:35:07.428Z,32.75
2018-07-04T11:37:53.511Z,29.44
2018-07-04T11:40:39.705Z,27.77
2018-07-04T11:43:25.872Z,27.49
2018-07-04T11:46:00.525Z,26.97
2018-07-04T11:48:29.312Z,26.87
2018-07-04T11:50:57.099Z,26.37
2018-07-04T11:56:02.956Z,25.93
2018-07-04T11:58:30.744Z,25.81
2018-07-04T12:00:58.528Z,25.74
2018-07-04T12:03:26.281Z,25.50
2018-07-04T12:06:12.651Z,25.00
2018-07-04T12:08:40.429Z,24.14
2018-07-04T12:11:08.172Z,23.89
2018-07-04T12:13:35.934Z,23.99
2018-07-04T12:16:03.835Z,23.53
2018-07-04T12:18:32.488Z,23.06
2018-07-04T12:21:00.317Z,22.95
2018-07-04T12:23:27.991Z,23.09
2018-07-04T12:25:55.757Z,23.13
2018-07-04T12:28:23.517Z,23.38
2018-07-04T12:30:51.259Z,23.50
2018-07-04T12:33:18.983Z,23.36
2018-07-04T12:35:46.711Z,23.44
2018-07-04T12:38:14.521Z,23.70
2018-07-04T12:40:42.322Z,23.74
2018-07-04T12:43:10.318Z,23.85
2018-07-04T12:45:39.584Z,23.97
2018-07-04T12:48:06.003Z,24.38
2018-07-04T12:50:34.053Z,25.42
2018-07-04T12:53:01.837Z,25.96
2018-07-04T12:55:48.112Z,26.45
2018-07-04T12:58:34.550Z,26.12
2018-07-04T13:01:36.411Z,25.50
2018-07-04T13:04:22.819Z,25.59
2018-07-04T13:07:09.062Z,25.90
2018-07-04T13:09:55.286Z,26.23
2018-07-04T13:12:41.399Z,27.01
2018-07-04T13:15:27.926Z,26.68
2018-07-04T13:18:14.308Z,25.68
2018-07-04T13:21:00.940Z,25.73
2018-07-04T13:23:48.107Z,26.27
2018-07-04T13:26:34.479Z,26.35
2018-07-04T13:29:21.007Z,26.73
2018-07-04T13:32:08.337Z,26.60
2018-07-04T13:34:55.197Z,26.98
2018-07-04T13:37:41.322Z,26.69
2018-07-04T13:40:27.677Z,27.01
2018-07-04T13:43:14.183Z,26.22
2018-07-04T13:46:00.507Z,25.60
2018-07-04T13:48:46.999Z,25.68
2018-07-04T13:51:33.345Z,25.46
2018-07-04T13:54:19.815Z,24.99
2018-07-04T13:57:06.151Z,24.99
2018-07-04T13:59:52.547Z,24.39
2018-07-04T14:02:38.817Z,24.39
2018-07-04T14:05:25.028Z,24.27
2018-07-04T14:08:11.618Z,24.49
2018-07-04T14:10:58.146Z,24.48
2018-07-04T14:13:44.541Z,24.11
2018-07-04T14:16:31.038Z,23.98
2018-07-04T14:19:17.814Z,23.83
2018-07-04T14:22:03.835Z,24.05
2018-07-04T14:24:50.180Z,24.06
2018-07-04T14:27:36.639Z,23.53
2018-07-04T14:30:23.127Z,24.26
2018-07-04T14:33:09.734Z,24.41
2018-07-04T14:35:56.080Z,24.01
2018-07-04T14:38:42.539Z,24.27
2018-07-04T14:41:29.266Z,24.91
2018-07-04T14:44:15.569Z,24.84
2018-07-04T14:47:01.599Z,24.95
2018-07-04T14:49:47.927Z,24.49
2018-07-04T14:52:34.173Z,24.28
2018-07-04T14:55:20.346Z,24.28
2018-07-04T14:58:06.899Z,24.06
2018-07-04T15:00:53.222Z,24.15
2018-07-04T15:03:39.615Z,24.61
2018-07-04T15:06:26.157Z,24.51
2018-07-04T15:09:12.597Z,24.09
2018-07-04T15:11:58.800Z,24.15
2018-07-04T15:14:45.140Z,24.28
2018-07-04T15:17:31.626Z,24.24
2018-07-04T15:20:17.921Z,24.51
2018-07-04T15:23:04.416Z,24.40
2018-07-04T15:25:50.931Z,24.92
2018-07-04T15:28:37.382Z,25.44
2018-07-04T15:31:23.835Z,25.41
2018-07-04T15:34:10.139Z,25.72
2018-07-04T15:36:56.700Z,25.66
2018-07-04T15:39:43.229Z,25.51
2018-07-04T15:42:29.685Z,25.13
2018-07-04T15:45:16.091Z,25.48
2018-07-04T15:48:02.117Z,26.09
2018-07-04T15:50:48.322Z,26.15
2018-07-04T15:53:34.390Z,25.85
2018-07-04T15:56:20.979Z,24.68
2018-07-04T15:59:07.548Z,24.52
2018-07-04T16:01:53.932Z,24.43
2018-07-04T16:04:40.424Z,24.36
2018-07-04T16:07:26.744Z,24.48
2018-07-04T16:10:13.184Z,24.15
2018-07-04T16:12:59.482Z,23.97
2018-07-04T16:15:46.055Z,23.81
2018-07-04T16:18:32.604Z,23.69
2018-07-04T16:21:19.044Z,23.81
2018-07-04T16:24:05.518Z,23.68
2018-07-04T16:26:51.885Z,23.84
2018-07-04T16:29:38.267Z,24.02
2018-07-04T16:32:24.790Z,24.40
2018-07-04T16:35:05.086Z,24.65
2018-07-04T16:37:51.386Z,25.02
2018-07-04T16:40:38.458Z,25.63
2018-07-04T16:43:24.983Z,25.68
2018-07-04T16:46:11.548Z,25.75
2018-07-04T16:48:57.886Z,25.08
2018-07-04T16:51:44.119Z,24.73
2018-07-04T16:54:30.279Z,24.55
2018-07-04T16:57:16.417Z,24.57
2018-07-04T17:00:02.383Z,24.34
2018-07-04T17:02:48.516Z,24.24
2018-07-04T17:05:34.739Z,24.22
2018-07-04T17:08:20.847Z,24.28
2018-07-04T17:11:07.055Z,23.76
2018-07-04T17:13:53.626Z,24.01
2018-07-04T17:16:39.675Z,23.92
2018-07-04T17:19:26.913Z,23.84
2018-07-04T17:22:13.007Z,23.83
2018-07-04T17:24:59.581Z,23.72
2018-07-04T17:27:45.775Z,23.44
2018-07-04T17:30:31.915Z,23.74
2018-07-04T17:33:18.367Z,24.02
2018-07-04T17:36:04.856Z,24.15
2018-07-04T17:38:51.151Z,23.92
2018-07-04T17:41:37.996Z,23.98
2018-07-04T17:44:24.555Z,23.69
2018-07-04T17:47:10.866Z,23.86
2018-07-04T17:49:57.239Z,23.74
2018-07-04T17:52:43.719Z,23.84
2018-07-04T17:55:30.228Z,23.92
2018-07-04T17:58:16.902Z,23.95
2018-07-04T18:01:03.276Z,23.95
2018-07-04T18:03:49.731Z,23.97
2018-07-04T18:06:37.162Z,23.94
2018-07-04T18:09:23.302Z,23.77
2018-07-04T18:12:09.804Z,23.39
2018-07-04T18:14:56.147Z,23.46
2018-07-04T18:17:42.351Z,23.51
2018-07-04T18:20:28.422Z,23.03
2018-07-04T18:23:14.537Z,22.75
2018-07-04T18:26:00.618Z,22.50
2018-07-04T18:28:46.870Z,22.26
2018-07-04T18:31:33.083Z,22.03
2018-07-04T18:34:19.267Z,22.06
2018-07-04T18:37:05.410Z,22.08
2018-07-04T18:39:51.557Z,21.74
2018-07-04T18:42:38.060Z,21.24
2018-07-04T18:45:24.544Z,21.05
2018-07-04T18:48:04.963Z,20.59
2018-07-04T18:50:51.466Z,20.32
2018-07-04T18:53:37.926Z,20.04
2018-07-04T18:56:24.230Z,20.37
2018-07-04T18:59:10.703Z,19.62
2018-07-04T19:01:57.263Z,19.27
2018-07-04T19:04:43.643Z,19.60
2018-07-04T19:07:30.179Z,18.88
2018-07-04T19:10:17.362Z,18.75
2018-07-04T19:13:03.941Z,18.40
2018-07-04T19:15:50.470Z,18.13
2018-07-04T19:18:36.838Z,18.06
2018-07-04T19:21:23.334Z,18.63
2018-07-04T19:24:03.785Z,18.26
2018-07-04T19:26:51.359Z,17.86
2018-07-04T19:29:37.675Z,17.86
2018-07-04T19:32:24.160Z,17.47
2018-07-04T19:35:10.579Z,17.19
2018-07-04T19:37:56.975Z,16.97
2018-07-04T19:40:43.489Z,17.24
2018-07-04T19:43:30.012Z,17.49
2018-07-04T19:46:16.630Z,17.21
2018-07-04T19:49:02.945Z,16.82
2018-07-04T19:51:49.331Z,16.63
2018-07-04T19:54:35.890Z,16.57
2018-07-04T19:57:22.332Z,16.51
2018-07-04T20:00:08.590Z,16.35
2018-07-04T20:02:55.071Z,16.71
2018-07-04T20:05:41.618Z,16.72
2018-07-04T20:08:27.932Z,16.30
2018-07-04T20:11:14.442Z,16.29
2018-07-04T20:14:01.043Z,15.86
2018-07-04T20:16:47.628Z,16.14
2018-07-04T20:19:34.110Z,16.28
2018-07-04T20:22:20.390Z,16.21
2018-07-04T20:25:07.025Z,16.26
2018-07-04T20:27:53.520Z,15.70
2018-07-04T20:30:39.802Z,15.38
2018-07-04T20:33:26.037Z,15.24
2018-07-04T20:36:12.547Z,15.13
2018-07-04T20:38:58.972Z,15.34
2018-07-04T20:41:45.717Z,15.07
2018-07-04T20:44:32.668Z,14.94
2018-07-04T20:47:19.080Z,14.90
2018-07-04T20:50:05.234Z,14.84
2018-07-04T20:52:51.239Z,14.81
2018-07-04T20:55:37.280Z,14.75
2018-07-04T20:58:23.394Z,14.64
2018-07-04T21:01:09.796Z,15.08
2018-07-04T21:03:56.085Z,15.02
2018-07-04T21:06:42.446Z,14.55
2018-07-04T21:09:28.931Z,14.33
2018-07-04T21:12:15.358Z,14.24
2018-07-04T21:15:01.899Z,14.50
2018-07-04T21:17:48.295Z,14.17
2018-07-04T21:20:34.790Z,14.16
2018-07-04T21:23:21.323Z,14.25
2018-07-04T21:26:07.671Z,13.93
2018-07-04T21:28:54.054Z,13.80
2018-07-04T21:31:40.334Z,13.73
2018-07-04T21:34:27.216Z,13.76
2018-07-04T21:37:13.537Z,13.82
2018-07-04T21:40:00.074Z,13.91
2018-07-04T21:42:46.493Z,13.69
2018-07-04T21:45:32.937Z,13.66
2018-07-04T21:48:19.434Z,13.70
2018-07-04T21:51:06.492Z,13.59
2018-07-04T21:53:52.834Z,13.93
2018-07-04T21:56:39.232Z,13.88
2018-07-04T21:59:25.645Z,13.51
2018-07-04T22:02:12.245Z,13.36
2018-07-04T22:04:58.616Z,13.26
2018-07-04T22:07:44.867Z,13.19
2018-07-04T22:10:31.003Z,13.21
2018-07-04T22:13:17.213Z,13.21
2018-07-04T22:16:03.425Z,13.13
2018-07-04T22:18:49.802Z,13.07
2018-07-04T22:21:35.811Z,12.99
2018-07-04T22:24:21.977Z,13.06
2018-07-04T22:27:08.110Z,12.93
2018-07-04T22:29:54.281Z,13.15
2018-07-04T22:32:40.364Z,12.83
2018-07-04T22:35:26.584Z,12.73
2018-07-04T22:38:12.706Z,12.83
2018-07-04T22:41:00.090Z,12.77
2018-07-04T22:43:46.539Z,12.67
2018-07-04T22:46:32.913Z,12.64
2018-07-04T22:49:19.376Z,12.54
2018-07-04T22:52:05.982Z,12.49
2018-07-04T22:54:52.394Z,12.49
2018-07-04T22:57:38.827Z,12.45
2018-07-04T23:00:25.294Z,12.43
2018-07-04T23:03:11.795Z,12.41
2018-07-04T23:05:58.217Z,12.49
2018-07-04T23:08:44.561Z,12.28
2018-07-04T23:11:31.199Z,12.12
2018-07-04T23:14:17.766Z,12.03
2018-07-04T23:17:04.261Z,11.99
2018-07-04T23:19:52.108Z,12.01
2018-07-04T23:22:38.322Z,11.97
2018-07-04T23:25:24.749Z,12.04
2018-07-04T23:28:11.263Z,11.95
2018-07-04T23:30:51.818Z,11.87
2018-07-04T23:33:38.207Z,11.81
2018-07-04T23:36:24.703Z,11.79
2018-07-04T23:39:11.101Z,11.79
2018-07-04T23:41:57.642Z,11.75
2018-07-04T23:44:43.969Z,11.76
2018-07-04T23:47:30.368Z,11.77
2018-07-04T23:50:16.858Z,11.74
2018-07-04T23:53:04.318Z,11.71
2018-07-04T23:55:50.638Z,11.64
2018-07-04T23:58:36.839Z,11.82
